sensor_id;sensor_type;location;lat;lon;timestamp;temperature;humidity
4596;DHT22;2310;49.978;8.742;2023-10-31T00:01:53;14.40;99.90
4596;DHT22;2310;49.978;8.742;2023-10-31T00:05:56;14.30;99.90
4596;DHT22;2310;49.978;8.742;2023-10-31T00:09:58;14.20;99.90
4596;DHT22;2310;49.978;8.742;2023-10-31T00:13:59;14.10;99.90
4596;DHT22;2310;49.978;8.742;2023-10-31T00:18:00;14.20;99.90
4596;DHT22;2310;49.978;8.742;2023-10-31T00:22:02;14.00;99.90
4596;DHT22;2310;49.978;8.742;2023-10-31T00:26:03;13.80;99.90
4596;DHT22;2310;49.978;8.742;2023-10-31T00:30:06;13.80;99.90
4596;DHT22;2310;49.978;8.742;2023-10-31T00:34:07;13.80;99.90
4596;DHT22;2310;49.978;8.742;2023-10-31T00:38:09;13.70;99.90
4596;DHT22;2310;49.978;8.742;2023-10-31T00:42:11;13.70;99.90
4596;DHT22;2310;49.978;8.742;2023-10-31T00:46:14;13.80;99.90
4596;DHT22;2310;49.978;8.742;2023-10-31T00:50:21;13.80;99.90
4596;DHT22;2310;49.978;8.742;2023-10-31T00:54:23;13.80;99.90
4596;DHT22;2310;49.978;8.742;2023-10-31T00:58:25;13.70;99.90
4596;DHT22;2310;49.978;8.742;2023-10-31T01:02:27;13.60;99.90
4596;DHT22;2310;49.978;8.742;2023-10-31T01:06:28;13.60;99.90
4596;DHT22;2310;49.978;8.742;2023-10-31T01:10:29;13.70;99.90
4596;DHT22;2310;49.978;8.742;2023-10-31T01:14:31;13.70;99.90
4596;DHT22;2310;49.978;8.742;2023-10-31T01:18:32;13.50;99.90
4596;DHT22;2310;49.978;8.742;2023-10-31T01:22:33;13.50;99.90
4596;DHT22;2310;49.978;8.742;2023-10-31T01:26:35;13.40;99.90
4596;DHT22;2310;49.978;8.742;2023-10-31T01:30:37;13.50;99.90
4596;DHT22;2310;49.978;8.742;2023-10-31T01:34:38;13.50;99.90
4596;DHT22;2310;49.978;8.742;2023-10-31T01:38:40;13.50;99.90
4596;DHT22;2310;49.978;8.742;2023-10-31T01:42:41;13.40;99.90
4596;DHT22;2310;49.978;8.742;2023-10-31T01:46:42;13.40;99.90
4596;DHT22;2310;49.978;8.742;2023-10-31T01:50:44;13.30;99.90
4596;DHT22;2310;49.978;8.742;2023-10-31T01:54:45;13.30;99.90
4596;DHT22;2310;49.978;8.742;2023-10-31T01:58:48;13.30;99.90
4596;DHT22;2310;49.978;8.742;2023-10-31T02:02:51;13.20;99.90
4596;DHT22;2310;49.978;8.742;2023-10-31T02:06:53;13.00;99.90
4596;DHT22;2310;49.978;8.742;2023-10-31T02:10:54;13.00;99.90
4596;DHT22;2310;49.978;8.742;2023-10-31T02:14:56;13.00;99.90
4596;DHT22;2310;49.978;8.742;2023-10-31T02:18:57;13.00;99.90
4596;DHT22;2310;49.978;8.742;2023-10-31T02:22:58;13.10;99.90
4596;DHT22;2310;49.978;8.742;2023-10-31T02:27:00;13.10;99.90
4596;DHT22;2310;49.978;8.742;2023-10-31T02:31:03;13.00;99.90
4596;DHT22;2310;49.978;8.742;2023-10-31T02:35:06;12.90;99.90
4596;DHT22;2310;49.978;8.742;2023-10-31T02:39:07;12.80;99.90
4596;DHT22;2310;49.978;8.742;2023-10-31T02:43:09;12.80;99.90
4596;DHT22;2310;49.978;8.742;2023-10-31T02:47:10;12.80;99.90
4596;DHT22;2310;49.978;8.742;2023-10-31T02:51:11;12.70;99.90
4596;DHT22;2310;49.978;8.742;2023-10-31T02:55:13;12.80;99.90
4596;DHT22;2310;49.978;8.742;2023-10-31T02:59:14;13.00;99.90
4596;DHT22;2310;49.978;8.742;2023-10-31T03:03:16;13.00;99.90
4596;DHT22;2310;49.978;8.742;2023-10-31T03:07:17;12.80;99.90
4596;DHT22;2310;49.978;8.742;2023-10-31T03:11:26;12.70;99.90
4596;DHT22;2310;49.978;8.742;2023-10-31T03:15:27;12.90;99.90
4596;DHT22;2310;49.978;8.742;2023-10-31T03:19:29;12.80;99.90
4596;DHT22;2310;49.978;8.742;2023-10-31T03:23:30;12.80;99.90
4596;DHT22;2310;49.978;8.742;2023-10-31T03:27:31;12.90;99.90
4596;DHT22;2310;49.978;8.742;2023-10-31T03:31:33;12.80;99.90
4596;DHT22;2310;49.978;8.742;2023-10-31T03:35:34;12.60;99.90
4596;DHT22;2310;49.978;8.742;2023-10-31T03:39:35;12.40;99.90
4596;DHT22;2310;49.978;8.742;2023-10-31T03:43:37;12.30;99.90
4596;DHT22;2310;49.978;8.742;2023-10-31T03:47:38;12.40;99.90
4596;DHT22;2310;49.978;8.742;2023-10-31T03:51:39;12.40;99.90
4596;DHT22;2310;49.978;8.742;2023-10-31T03:55:41;12.50;99.90
4596;DHT22;2310;49.978;8.742;2023-10-31T03:59:42;12.60;99.90
4596;DHT22;2310;49.978;8.742;2023-10-31T04:03:43;12.50;99.90
4596;DHT22;2310;49.978;8.742;2023-10-31T04:07:46;12.40;99.90
4596;DHT22;2310;49.978;8.742;2023-10-31T04:11:48;12.30;99.90
4596;DHT22;2310;49.978;8.742;2023-10-31T04:15:50;12.30;99.90
4596;DHT22;2310;49.978;8.742;2023-10-31T04:19:51;12.10;99.90
4596;DHT22;2310;49.978;8.742;2023-10-31T04:23:52;12.30;99.90
4596;DHT22;2310;49.978;8.742;2023-10-31T04:27:54;12.30;99.90
4596;DHT22;2310;49.978;8.742;2023-10-31T04:31:55;12.40;99.90
4596;DHT22;2310;49.978;8.742;2023-10-31T04:35:57;12.40;99.90
4596;DHT22;2310;49.978;8.742;2023-10-31T04:39:58;12.50;99.90
4596;DHT22;2310;49.978;8.742;2023-10-31T04:44:00;12.30;99.90
4596;DHT22;2310;49.978;8.742;2023-10-31T04:48:01;12.50;99.90
4596;DHT22;2310;49.978;8.742;2023-10-31T04:52:03;12.40;99.90
4596;DHT22;2310;49.978;8.742;2023-10-31T04:56:11;12.60;99.90
4596;DHT22;2310;49.978;8.742;2023-10-31T05:00:10;12.50;99.90
4596;DHT22;2310;49.978;8.742;2023-10-31T05:04:12;12.50;99.90
4596;DHT22;2310;49.978;8.742;2023-10-31T05:08:15;12.50;99.90
4596;DHT22;2310;49.978;8.742;2023-10-31T05:12:17;12.70;99.90
4596;DHT22;2310;49.978;8.742;2023-10-31T05:16:18;12.80;99.90
4596;DHT22;2310;49.978;8.742;2023-10-31T05:20:19;12.70;99.90
4596;DHT22;2310;49.978;8.742;2023-10-31T05:24:21;12.50;99.90
4596;DHT22;2310;49.978;8.742;2023-10-31T05:28:23;12.70;99.90
4596;DHT22;2310;49.978;8.742;2023-10-31T05:32:24;12.80;99.90
4596;DHT22;2310;49.978;8.742;2023-10-31T05:36:26;12.50;99.90
4596;DHT22;2310;49.978;8.742;2023-10-31T05:40:29;12.40;99.90
4596;DHT22;2310;49.978;8.742;2023-10-31T05:44:31;12.70;99.90
4596;DHT22;2310;49.978;8.742;2023-10-31T05:48:39;12.70;99.90
4596;DHT22;2310;49.978;8.742;2023-10-31T05:52:42;12.70;99.90
4596;DHT22;2310;49.978;8.742;2023-10-31T05:56:45;12.70;99.90
4596;DHT22;2310;49.978;8.742;2023-10-31T06:00:46;12.70;99.90
4596;DHT22;2310;49.978;8.742;2023-10-31T06:04:48;12.60;99.90
4596;DHT22;2310;49.978;8.742;2023-10-31T06:08:50;12.70;99.90
4596;DHT22;2310;49.978;8.742;2023-10-31T06:12:51;12.70;99.90
4596;DHT22;2310;49.978;8.742;2023-10-31T06:16:54;12.70;99.90
4596;DHT22;2310;49.978;8.742;2023-10-31T06:20:57;12.80;99.90
4596;DHT22;2310;49.978;8.742;2023-10-31T06:24:58;12.60;99.90
4596;DHT22;2310;49.978;8.742;2023-10-31T06:29:00;12.70;99.90
4596;DHT22;2310;49.978;8.742;2023-10-31T06:33:04;12.60;99.90
4596;DHT22;2310;49.978;8.742;2023-10-31T06:37:08;12.60;99.90
4596;DHT22;2310;49.978;8.742;2023-10-31T06:41:10;12.80;99.90
4596;DHT22;2310;49.978;8.742;2023-10-31T06:45:12;12.80;99.90
4596;DHT22;2310;49.978;8.742;2023-10-31T06:49:14;12.80;99.90
4596;DHT22;2310;49.978;8.742;2023-10-31T06:53:16;12.60;99.90
4596;DHT22;2310;49.978;8.742;2023-10-31T06:57:20;12.70;99.90
4596;DHT22;2310;49.978;8.742;2023-10-31T07:01:22;12.60;99.90
4596;DHT22;2310;49.978;8.742;2023-10-31T07:05:24;12.60;99.90
4596;DHT22;2310;49.978;8.742;2023-10-31T07:09:27;12.70;99.90
4596;DHT22;2310;49.978;8.742;2023-10-31T07:13:31;12.70;99.90
4596;DHT22;2310;49.978;8.742;2023-10-31T07:17:33;12.70;99.90
4596;DHT22;2310;49.978;8.742;2023-10-31T07:21:35;12.70;99.90
4596;DHT22;2310;49.978;8.742;2023-10-31T07:25:37;12.60;99.90
4596;DHT22;2310;49.978;8.742;2023-10-31T07:29:40;12.60;99.90
4596;DHT22;2310;49.978;8.742;2023-10-31T07:33:44;12.70;99.90
4596;DHT22;2310;49.978;8.742;2023-10-31T07:37:50;12.80;99.90
4596;DHT22;2310;49.978;8.742;2023-10-31T07:41:56;12.80;99.90
4596;DHT22;2310;49.978;8.742;2023-10-31T07:45:57;12.80;99.90
4596;DHT22;2310;49.978;8.742;2023-10-31T07:49:59;12.70;99.90
4596;DHT22;2310;49.978;8.742;2023-10-31T07:54:00;12.70;99.90
4596;DHT22;2310;49.978;8.742;2023-10-31T07:58:02;12.70;99.90
4596;DHT22;2310;49.978;8.742;2023-10-31T08:02:10;12.90;99.90
4596;DHT22;2310;49.978;8.742;2023-10-31T08:06:12;12.70;99.90
4596;DHT22;2310;49.978;8.742;2023-10-31T08:10:17;12.70;99.90
4596;DHT22;2310;49.978;8.742;2023-10-31T08:14:22;12.80;99.90
4596;DHT22;2310;49.978;8.742;2023-10-31T08:18:25;12.90;99.90
4596;DHT22;2310;49.978;8.742;2023-10-31T08:22:27;12.90;99.90
4596;DHT22;2310;49.978;8.742;2023-10-31T08:26:30;13.00;99.90
4596;DHT22;2310;49.978;8.742;2023-10-31T08:30:31;13.10;99.90
4596;DHT22;2310;49.978;8.742;2023-10-31T08:34:32;13.20;99.90
4596;DHT22;2310;49.978;8.742;2023-10-31T08:38:34;13.30;99.90
4596;DHT22;2310;49.978;8.742;2023-10-31T08:42:35;13.30;99.90
4596;DHT22;2310;49.978;8.742;2023-10-31T08:46:37;13.40;99.90
4596;DHT22;2310;49.978;8.742;2023-10-31T08:50:38;13.30;99.90
4596;DHT22;2310;49.978;8.742;2023-10-31T08:54:40;13.50;99.90
4596;DHT22;2310;49.978;8.742;2023-10-31T08:58:41;13.40;99.90
4596;DHT22;2310;49.978;8.742;2023-10-31T09:02:42;13.70;99.90
4596;DHT22;2310;49.978;8.742;2023-10-31T09:06:44;13.70;99.90
4596;DHT22;2310;49.978;8.742;2023-10-31T09:10:46;13.80;99.90
4596;DHT22;2310;49.978;8.742;2023-10-31T09:14:52;14.00;99.90
4596;DHT22;2310;49.978;8.742;2023-10-31T09:18:54;14.00;99.90
4596;DHT22;2310;49.978;8.742;2023-10-31T09:22:56;14.20;99.90
4596;DHT22;2310;49.978;8.742;2023-10-31T09:26:58;14.40;99.90
4596;DHT22;2310;49.978;8.742;2023-10-31T09:31:02;14.40;99.90
4596;DHT22;2310;49.978;8.742;2023-10-31T09:35:04;14.50;99.90
4596;DHT22;2310;49.978;8.742;2023-10-31T09:39:07;14.60;99.90
4596;DHT22;2310;49.978;8.742;2023-10-31T09:43:08;14.80;99.90
4596;DHT22;2310;49.978;8.742;2023-10-31T09:47:10;14.80;99.90
4596;DHT22;2310;49.978;8.742;2023-10-31T09:51:12;14.70;99.90
4596;DHT22;2310;49.978;8.742;2023-10-31T09:55:14;14.80;99.90
4596;DHT22;2310;49.978;8.742;2023-10-31T09:59:15;14.80;99.90
4596;DHT22;2310;49.978;8.742;2023-10-31T10:03:17;14.70;99.90
4596;DHT22;2310;49.978;8.742;2023-10-31T10:07:19;14.80;99.90
4596;DHT22;2310;49.978;8.742;2023-10-31T10:11:21;14.80;99.90
4596;DHT22;2310;49.978;8.742;2023-10-31T10:15:23;15.00;99.90
4596;DHT22;2310;49.978;8.742;2023-10-31T10:19:25;15.00;99.90
4596;DHT22;2310;49.978;8.742;2023-10-31T10:23:27;14.80;99.90
4596;DHT22;2310;49.978;8.742;2023-10-31T10:27:29;14.80;99.90
4596;DHT22;2310;49.978;8.742;2023-10-31T10:31:30;14.80;99.90
4596;DHT22;2310;49.978;8.742;2023-10-31T10:35:32;14.80;99.90
4596;DHT22;2310;49.978;8.742;2023-10-31T10:39:33;14.80;99.90
4596;DHT22;2310;49.978;8.742;2023-10-31T10:43:38;15.00;99.90
4596;DHT22;2310;49.978;8.742;2023-10-31T10:47:45;15.00;99.90
4596;DHT22;2310;49.978;8.742;2023-10-31T10:51:53;15.20;99.90
4596;DHT22;2310;49.978;8.742;2023-10-31T10:56:02;15.10;99.90
4596;DHT22;2310;49.978;8.742;2023-10-31T11:00:05;15.10;99.90
4596;DHT22;2310;49.978;8.742;2023-10-31T11:04:10;15.20;99.90
4596;DHT22;2310;49.978;8.742;2023-10-31T11:08:12;15.30;99.90
4596;DHT22;2310;49.978;8.742;2023-10-31T11:12:14;15.50;99.90
4596;DHT22;2310;49.978;8.742;2023-10-31T11:16:26;15.70;99.90
4596;DHT22;2310;49.978;8.742;2023-10-31T11:20:27;15.80;99.90
4596;DHT22;2310;49.978;8.742;2023-10-31T11:24:36;15.80;99.90
4596;DHT22;2310;49.978;8.742;2023-10-31T11:28:36;15.80;99.90
4596;DHT22;2310;49.978;8.742;2023-10-31T11:32:38;15.70;99.90
4596;DHT22;2310;49.978;8.742;2023-10-31T11:36:39;15.50;99.90
4596;DHT22;2310;49.978;8.742;2023-10-31T11:44:55;15.70;99.90
4596;DHT22;2310;49.978;8.742;2023-10-31T11:48:57;15.70;99.90
4596;DHT22;2310;49.978;8.742;2023-10-31T11:53:09;15.90;99.90
4596;DHT22;2310;49.978;8.742;2023-10-31T11:57:27;15.80;99.90
4596;DHT22;2310;49.978;8.742;2023-10-31T12:01:30;15.70;99.90
4596;DHT22;2310;49.978;8.742;2023-10-31T12:05:31;16.00;99.90
4596;DHT22;2310;49.978;8.742;2023-10-31T12:09:33;15.80;99.90
4596;DHT22;2310;49.978;8.742;2023-10-31T12:13:36;15.80;99.90
4596;DHT22;2310;49.978;8.742;2023-10-31T12:17:37;16.00;99.90
4596;DHT22;2310;49.978;8.742;2023-10-31T12:21:44;15.90;99.90
4596;DHT22;2310;49.978;8.742;2023-10-31T12:25:48;15.90;99.90
4596;DHT22;2310;49.978;8.742;2023-10-31T12:30:00;15.90;99.90
4596;DHT22;2310;49.978;8.742;2023-10-31T12:34:06;16.10;99.90
4596;DHT22;2310;49.978;8.742;2023-10-31T12:38:10;16.60;99.90
4596;DHT22;2310;49.978;8.742;2023-10-31T12:42:11;16.90;99.90
4596;DHT22;2310;49.978;8.742;2023-10-31T12:46:29;17.40;99.90
4596;DHT22;2310;49.978;8.742;2023-10-31T12:50:32;17.90;99.90
4596;DHT22;2310;49.978;8.742;2023-10-31T12:54:35;17.90;99.90
4596;DHT22;2310;49.978;8.742;2023-10-31T12:58:37;17.80;99.90
4596;DHT22;2310;49.978;8.742;2023-10-31T13:02:40;17.70;99.90
4596;DHT22;2310;49.978;8.742;2023-10-31T13:06:54;17.40;99.90
4596;DHT22;2310;49.978;8.742;2023-10-31T13:10:49;17.60;99.90
4596;DHT22;2310;49.978;8.742;2023-10-31T13:14:50;17.50;99.90
4596;DHT22;2310;49.978;8.742;2023-10-31T13:18:53;17.70;99.90
4596;DHT22;2310;49.978;8.742;2023-10-31T13:22:55;17.20;99.90
4596;DHT22;2310;49.978;8.742;2023-10-31T13:26:58;17.10;99.90
4596;DHT22;2310;49.978;8.742;2023-10-31T13:31:01;17.00;99.90
4596;DHT22;2310;49.978;8.742;2023-10-31T13:35:09;16.80;99.90
4596;DHT22;2310;49.978;8.742;2023-10-31T13:39:11;16.70;99.90
4596;DHT22;2310;49.978;8.742;2023-10-31T13:43:13;16.40;99.90
4596;DHT22;2310;49.978;8.742;2023-10-31T13:47:15;16.50;99.90
4596;DHT22;2310;49.978;8.742;2023-10-31T13:51:19;16.40;99.90
4596;DHT22;2310;49.978;8.742;2023-10-31T13:55:24;16.20;99.90
4596;DHT22;2310;49.978;8.742;2023-10-31T13:59:31;16.00;99.90
4596;DHT22;2310;49.978;8.742;2023-10-31T14:03:36;16.00;99.90
4596;DHT22;2310;49.978;8.742;2023-10-31T14:07:38;16.00;99.90
4596;DHT22;2310;49.978;8.742;2023-10-31T14:11:40;15.80;99.90
4596;DHT22;2310;49.978;8.742;2023-10-31T14:15:42;15.70;99.90
4596;DHT22;2310;49.978;8.742;2023-10-31T14:19:43;15.70;99.90
4596;DHT22;2310;49.978;8.742;2023-10-31T14:23:44;16.10;99.90
4596;DHT22;2310;49.978;8.742;2023-10-31T14:27:48;16.20;99.90
4596;DHT22;2310;49.978;8.742;2023-10-31T14:31:49;16.40;99.90
4596;DHT22;2310;49.978;8.742;2023-10-31T14:35:53;16.60;99.90
4596;DHT22;2310;49.978;8.742;2023-10-31T14:39:54;16.50;99.90
4596;DHT22;2310;49.978;8.742;2023-10-31T14:43:56;16.30;99.90
4596;DHT22;2310;49.978;8.742;2023-10-31T14:47:57;16.10;99.90
4596;DHT22;2310;49.978;8.742;2023-10-31T14:51:59;16.20;99.90
4596;DHT22;2310;49.978;8.742;2023-10-31T14:56:00;16.20;99.90
4596;DHT22;2310;49.978;8.742;2023-10-31T15:00:03;15.90;99.90
4596;DHT22;2310;49.978;8.742;2023-10-31T15:04:05;15.90;99.90
4596;DHT22;2310;49.978;8.742;2023-10-31T15:08:08;15.70;99.90
4596;DHT22;2310;49.978;8.742;2023-10-31T15:12:09;15.80;99.90
4596;DHT22;2310;49.978;8.742;2023-10-31T15:16:10;15.80;99.90
4596;DHT22;2310;49.978;8.742;2023-10-31T15:20:12;15.60;99.90
4596;DHT22;2310;49.978;8.742;2023-10-31T15:24:16;15.50;99.90
4596;DHT22;2310;49.978;8.742;2023-10-31T15:28:18;15.70;99.90
4596;DHT22;2310;49.978;8.742;2023-10-31T15:32:20;15.60;99.90
4596;DHT22;2310;49.978;8.742;2023-10-31T15:36:21;15.70;99.90
4596;DHT22;2310;49.978;8.742;2023-10-31T15:40:22;15.60;99.90
4596;DHT22;2310;49.978;8.742;2023-10-31T15:44:24;15.50;99.90
4596;DHT22;2310;49.978;8.742;2023-10-31T15:48:26;15.60;99.90
4596;DHT22;2310;49.978;8.742;2023-10-31T15:52:28;15.60;99.90
4596;DHT22;2310;49.978;8.742;2023-10-31T15:56:29;15.50;99.90
4596;DHT22;2310;49.978;8.742;2023-10-31T16:00:31;15.30;99.90
4596;DHT22;2310;49.978;8.742;2023-10-31T16:04:32;15.20;99.90
4596;DHT22;2310;49.978;8.742;2023-10-31T16:08:34;15.30;99.90
4596;DHT22;2310;49.978;8.742;2023-10-31T16:12:36;15.40;99.90
4596;DHT22;2310;49.978;8.742;2023-10-31T16:16:37;15.40;99.90
4596;DHT22;2310;49.978;8.742;2023-10-31T16:20:38;15.40;99.90
4596;DHT22;2310;49.978;8.742;2023-10-31T16:24:42;15.40;99.90
4596;DHT22;2310;49.978;8.742;2023-10-31T16:28:43;15.40;99.90
4596;DHT22;2310;49.978;8.742;2023-10-31T16:32:48;15.40;99.90
4596;DHT22;2310;49.978;8.742;2023-10-31T16:36:50;15.40;99.90
4596;DHT22;2310;49.978;8.742;2023-10-31T16:40:52;15.30;99.90
4596;DHT22;2310;49.978;8.742;2023-10-31T16:44:54;15.30;99.90
4596;DHT22;2310;49.978;8.742;2023-10-31T16:48:55;15.40;99.90
4596;DHT22;2310;49.978;8.742;2023-10-31T16:52:57;15.40;99.90
4596;DHT22;2310;49.978;8.742;2023-10-31T16:57:00;15.40;99.90
4596;DHT22;2310;49.978;8.742;2023-10-31T17:01:01;15.20;99.90
4596;DHT22;2310;49.978;8.742;2023-10-31T17:05:03;15.10;99.90
4596;DHT22;2310;49.978;8.742;2023-10-31T17:09:06;15.00;99.90
4596;DHT22;2310;49.978;8.742;2023-10-31T17:13:08;14.80;99.90
4596;DHT22;2310;49.978;8.742;2023-10-31T17:17:10;14.60;99.90
4596;DHT22;2310;49.978;8.742;2023-10-31T17:21:12;14.60;99.90
4596;DHT22;2310;49.978;8.742;2023-10-31T17:25:13;14.90;99.90
4596;DHT22;2310;49.978;8.742;2023-10-31T17:29:15;14.80;99.90
4596;DHT22;2310;49.978;8.742;2023-10-31T17:33:16;14.60;99.90
4596;DHT22;2310;49.978;8.742;2023-10-31T17:37:19;14.50;99.90
4596;DHT22;2310;49.978;8.742;2023-10-31T17:41:21;14.30;99.90
4596;DHT22;2310;49.978;8.742;2023-10-31T17:45:22;14.40;99.90
4596;DHT22;2310;49.978;8.742;2023-10-31T17:49:25;14.60;99.90
4596;DHT22;2310;49.978;8.742;2023-10-31T17:53:27;14.50;99.90
4596;DHT22;2310;49.978;8.742;2023-10-31T17:57:28;14.50;99.90
4596;DHT22;2310;49.978;8.742;2023-10-31T18:01:30;14.40;99.90
4596;DHT22;2310;49.978;8.742;2023-10-31T18:05:32;14.30;99.90
4596;DHT22;2310;49.978;8.742;2023-10-31T18:09:33;14.10;99.90
4596;DHT22;2310;49.978;8.742;2023-10-31T18:13:36;14.10;99.90
4596;DHT22;2310;49.978;8.742;2023-10-31T18:17:38;14.20;99.90
4596;DHT22;2310;49.978;8.742;2023-10-31T18:21:39;14.30;99.90
4596;DHT22;2310;49.978;8.742;2023-10-31T18:25:42;14.20;99.90
4596;DHT22;2310;49.978;8.742;2023-10-31T18:29:43;14.20;99.90
4596;DHT22;2310;49.978;8.742;2023-10-31T18:33:45;14.10;99.90
4596;DHT22;2310;49.978;8.742;2023-10-31T18:37:46;13.80;99.90
4596;DHT22;2310;49.978;8.742;2023-10-31T18:41:49;13.90;99.90
4596;DHT22;2310;49.978;8.742;2023-10-31T18:45:52;13.80;99.90
4596;DHT22;2310;49.978;8.742;2023-10-31T18:49:56;13.80;99.90
4596;DHT22;2310;49.978;8.742;2023-10-31T18:53:59;13.60;99.90
4596;DHT22;2310;49.978;8.742;2023-10-31T18:58:01;13.80;99.90
4596;DHT22;2310;49.978;8.742;2023-10-31T19:02:02;13.70;99.90
4596;DHT22;2310;49.978;8.742;2023-10-31T19:06:04;13.70;99.90
4596;DHT22;2310;49.978;8.742;2023-10-31T19:10:07;13.80;99.90
4596;DHT22;2310;49.978;8.742;2023-10-31T19:14:11;13.80;99.90
4596;DHT22;2310;49.978;8.742;2023-10-31T19:18:13;13.80;99.90
4596;DHT22;2310;49.978;8.742;2023-10-31T19:22:14;13.60;99.90
4596;DHT22;2310;49.978;8.742;2023-10-31T19:26:16;13.50;99.90
4596;DHT22;2310;49.978;8.742;2023-10-31T19:30:19;13.50;99.90
4596;DHT22;2310;49.978;8.742;2023-10-31T19:34:21;13.40;99.90
4596;DHT22;2310;49.978;8.742;2023-10-31T19:38:23;13.50;99.90
4596;DHT22;2310;49.978;8.742;2023-10-31T19:42:27;13.80;99.90
4596;DHT22;2310;49.978;8.742;2023-10-31T19:46:28;13.80;99.90
4596;DHT22;2310;49.978;8.742;2023-10-31T19:50:30;13.70;99.90
4596;DHT22;2310;49.978;8.742;2023-10-31T19:54:31;13.80;99.90
4596;DHT22;2310;49.978;8.742;2023-10-31T19:58:33;13.60;99.90
4596;DHT22;2310;49.978;8.742;2023-10-31T20:02:34;13.60;99.90
4596;DHT22;2310;49.978;8.742;2023-10-31T20:06:36;13.70;99.90
4596;DHT22;2310;49.978;8.742;2023-10-31T20:10:38;13.50;99.90
4596;DHT22;2310;49.978;8.742;2023-10-31T20:14:39;13.60;99.90
4596;DHT22;2310;49.978;8.742;2023-10-31T20:18:42;13.50;99.90
4596;DHT22;2310;49.978;8.742;2023-10-31T20:22:44;13.50;99.90
4596;DHT22;2310;49.978;8.742;2023-10-31T20:26:45;13.60;99.90
4596;DHT22;2310;49.978;8.742;2023-10-31T20:30:47;13.40;99.90
4596;DHT22;2310;49.978;8.742;2023-10-31T20:34:48;13.30;99.90
4596;DHT22;2310;49.978;8.742;2023-10-31T20:38:50;13.40;99.90
4596;DHT22;2310;49.978;8.742;2023-10-31T20:42:51;13.70;99.90
4596;DHT22;2310;49.978;8.742;2023-10-31T20:46:54;13.50;99.90
4596;DHT22;2310;49.978;8.742;2023-10-31T20:50:56;13.60;99.90
4596;DHT22;2310;49.978;8.742;2023-10-31T20:54:57;13.50;99.90
4596;DHT22;2310;49.978;8.742;2023-10-31T20:58:59;13.50;99.90
4596;DHT22;2310;49.978;8.742;2023-10-31T21:03:01;13.60;99.90
4596;DHT22;2310;49.978;8.742;2023-10-31T21:07:06;13.50;99.90
4596;DHT22;2310;49.978;8.742;2023-10-31T21:11:09;13.50;99.90
4596;DHT22;2310;49.978;8.742;2023-10-31T21:15:10;13.60;99.90
4596;DHT22;2310;49.978;8.742;2023-10-31T21:19:12;13.40;99.90
4596;DHT22;2310;49.978;8.742;2023-10-31T21:23:16;13.40;99.90
4596;DHT22;2310;49.978;8.742;2023-10-31T21:27:18;13.50;99.90
4596;DHT22;2310;49.978;8.742;2023-10-31T21:31:19;13.50;99.90
4596;DHT22;2310;49.978;8.742;2023-10-31T21:35:21;13.70;99.90
4596;DHT22;2310;49.978;8.742;2023-10-31T21:39:23;13.50;99.90
4596;DHT22;2310;49.978;8.742;2023-10-31T21:43:27;13.60;99.90
4596;DHT22;2310;49.978;8.742;2023-10-31T21:47:28;13.70;99.90
4596;DHT22;2310;49.978;8.742;2023-10-31T21:51:30;13.70;99.90
4596;DHT22;2310;49.978;8.742;2023-10-31T21:55:32;13.60;99.90
4596;DHT22;2310;49.978;8.742;2023-10-31T21:59:33;13.60;99.90
4596;DHT22;2310;49.978;8.742;2023-10-31T22:03:35;13.60;99.90
4596;DHT22;2310;49.978;8.742;2023-10-31T22:07:36;13.50;99.90
4596;DHT22;2310;49.978;8.742;2023-10-31T22:11:39;13.60;99.90
4596;DHT22;2310;49.978;8.742;2023-10-31T22:15:41;13.60;99.90
4596;DHT22;2310;49.978;8.742;2023-10-31T22:19:42;13.50;99.90
4596;DHT22;2310;49.978;8.742;2023-10-31T22:23:44;13.60;99.90
4596;DHT22;2310;49.978;8.742;2023-10-31T22:27:46;13.70;99.90
4596;DHT22;2310;49.978;8.742;2023-10-31T22:31:47;13.60;99.90
4596;DHT22;2310;49.978;8.742;2023-10-31T22:35:49;13.70;99.90
4596;DHT22;2310;49.978;8.742;2023-10-31T22:39:53;13.60;99.90
4596;DHT22;2310;49.978;8.742;2023-10-31T22:43:54;13.60;99.90
4596;DHT22;2310;49.978;8.742;2023-10-31T22:47:56;13.40;99.90
4596;DHT22;2310;49.978;8.742;2023-10-31T22:51:58;13.50;99.90
4596;DHT22;2310;49.978;8.742;2023-10-31T22:56:00;13.60;99.90
4596;DHT22;2310;49.978;8.742;2023-10-31T23:00:01;13.60;99.90
4596;DHT22;2310;49.978;8.742;2023-10-31T23:04:04;13.60;99.90
4596;DHT22;2310;49.978;8.742;2023-10-31T23:08:06;13.30;99.90
4596;DHT22;2310;49.978;8.742;2023-10-31T23:12:07;13.20;99.90
4596;DHT22;2310;49.978;8.742;2023-10-31T23:16:09;13.40;99.90
4596;DHT22;2310;49.978;8.742;2023-10-31T23:20:11;13.40;99.90
4596;DHT22;2310;49.978;8.742;2023-10-31T23:24:13;13.40;99.90
4596;DHT22;2310;49.978;8.742;2023-10-31T23:28:14;13.30;99.90
4596;DHT22;2310;49.978;8.742;2023-10-31T23:32:16;13.20;99.90
4596;DHT22;2310;49.978;8.742;2023-10-31T23:36:18;13.30;99.90
4596;DHT22;2310;49.978;8.742;2023-10-31T23:40:20;13.40;99.90
4596;DHT22;2310;49.978;8.742;2023-10-31T23:44:21;13.30;99.90
4596;DHT22;2310;49.978;8.742;2023-10-31T23:48:23;13.30;99.90
4596;DHT22;2310;49.978;8.742;2023-10-31T23:52:24;13.40;99.90
4596;DHT22;2310;49.978;8.742;2023-10-31T23:56:25;13.30;99.90
